Impacts METAR Board INFO
IDs:

KFLL - Ft Lauderdale-Hollyw, FL, US

Updated at: 1444 UTC 22 Feb 2018
Potential Impact None Slight Moderate High
Time22/02Z 22/03Z 22/04Z 22/05Z 22/06Z 22/07Z 22/08Z 22/09Z 22/10Z 22/11Z 22/12Z 22/13Z 22/14Z
VIS 10 10 10 10 10 9 10 10 10 10 10
CIG -- -- 48 50 -- 44 41 50 46 75 65
CoverFEWSCTBKNBKNFEWOVCBKNBKNOVCBKNBKN
FltCatVFRVFRVFRVFRVFRVFRVFRVFRVFRVFRVFR
WX----------------------
WDir11011011010011010090100100100100
WSpd 16 15 17 16 16 15 11 16 15 14 18
WGst -- -- -- -- -- -- -- -- -- -- --
Raw hourly METARs


KFLL 220353Z 11016KT 10SM FEW025 24/21 A3033 RMK AO2 SLP271 T02440206
KFLL 220453Z 11015KT 10SM SCT025 24/21 A3032 RMK AO2 SLP267 T02440206 402830239
KFLL 220553Z 11017KT 10SM SCT024 BKN048 24/21 A3031 RMK AO2 SLP264 SCT V BKN T02440211 10244 20239 58006
KFLL 220653Z 10016KT 10SM SCT023 BKN050 24/21 A3031 RMK AO2 SLP263 T02390211
KFLL 220753Z 11016KT 10SM FEW025 FEW040 24/21 A3030 RMK AO2 SLP259 T02390206
KFLL 220853Z 10015KT 9SM SCT023 BKN044 OVC050 23/22 A3029 RMK AO2 RAB20E30 SLP256 P0000 60000 T02330217 58009
KFLL 220953Z 09011KT 10SM FEW022 BKN041 BKN050 23/21 A3029 RMK AO2 RAB35E45 SLP257 P0000 T02280211
KFLL 221053Z 10016KT 10SM FEW040 BKN050 BKN075 24/21 A3030 RMK AO2 SLP261 T02390206
KFLL 221153Z 10015KT 10SM FEW025 BKN046 OVC075 24/21 A3032 RMK AO2 SLP267 60000 T02390206 10244 20228 53011
KFLL 221253Z 10014KT 10SM FEW025 SCT045 BKN075 24/21 A3034 RMK AO2 SLP273 T02440211
KFLL 221353Z 10018KT 10SM SCT045 BKN065 26/22 A3035 RMK AO2 SLP276 T02560217